Fsl New York — 9VBQ8 — position and weather

sailwx.info

Track history (hours):
 
Tides and Currents Weather Stations Pressure Air Temp Water Temp Dewpoint Dewpoint Depression Visibility Wind Speed Wind Dir Waves Ship Positions

Fsl New York

Last reported at 2015-Jan-28 13:14 UTC. Time now 2015-Jan-29 10:26 UTC.
Position N 51°17' E 004°20'.

Length 138 m; draft 6.7 m.

Type: Tanker. MMSI: 565174000.

Date/timePositionNaut miles runAvg speedWind from/ knotsBaromVisibWave heightAir tempDewpointWater temp
2015-Jan-28 13:14N 51°17' E 004°20'0 0.2
2015-Jan-28 12:33N 51°17' E 004°21'4 4.5
2015-Jan-28 11:34N 51°21' E 004°17'0 0.0
2015-Jan-28 10:34N 51°21' E 004°17'5 4.7
2015-Jan-28 09:33N 51°24' E 004°11'8 8.1
2015-Jan-28 08:33N 51°26' E 003°59'10 9.8
2015-Jan-28 07:33N 51°23' E 003°44'8 8.0
2015-Jan-28 06:33N 51°27' E 003°33'1212.0
2015-Jan-28 05:33N 51°37' E 003°22'1110.3
2015-Jan-28 04:32N 51°46' E 003°13'2 2.5
2015-Jan-28 03:32N 51°47' E 003°10'7 6.4
2015-Jan-28 02:30N 51°52' E 003°19'10 9.7
2015-Jan-28 01:30N 52°01' E 003°20'1212.9
2015-Jan-28 00:33N 52°04' E 003°40'1110.7
2015-Jan-27 23:33N 52°02' E 003°57'1211.6
2015-Jan-27 22:33N 51°56' E 004°13'3 1.0
2015-Jan-27 19:13N 51°53' E 004°17'0 0.0
2015-Jan-27 06:13N 51°53' E 004°17'0 0.5
2015-Jan-27 05:33N 51°53' E 004°17'0 0.0
2015-Jan-26 02:33N 51°53' E 004°17'0 0.0
2015-Jan-25 01:31N 51°53' E 004°17'1 0.9
2015-Jan-25 00:32N 51°53' E 004°19'0 0.0
2015-Jan-24 09:34N 51°53' E 004°19'1 0.8
2015-Jan-24 08:34N 51°53' E 004°18'0 0.0
2015-Jan-22 12:31N 51°53' E 004°18'2 2.0
2015-Jan-22 11:32N 51°53' E 004°21'0 0.0
2015-Jan-22 10:29N 51°53' E 004°21'0 0.0
2015-Jan-22 09:26N 51°53' E 004°21'0 0.0
2015-Jan-22 08:20N 51°54' E 004°21'0 0.1
2015-Jan-22 07:29N 51°53' E 004°21'0 0.0
2015-Jan-22 06:32N 51°53' E 004°21'0 0.0
2015-Jan-22 05:23N 51°53' E 004°21'0 0.0
2015-Jan-22 04:29N 51°53' E 004°21'0 0.0
2015-Jan-22 03:29N 51°53' E 004°21'0 0.0
2015-Jan-22 02:23N 51°53' E 004°21'0 0.0
2015-Jan-22 01:32N 51°53' E 004°21'0 0.0
2015-Jan-22 00:32N 51°53' E 004°21'0 0.0
2015-Jan-21 23:29N 51°53' E 004°21'0 0.0
2015-Jan-21 22:44N 51°53' E 004°21'0 0.0
2015-Jan-21 22:20N 51°53' E 004°21'0 0.0
2015-Jan-21 21:32N 51°53' E 004°21'0 0.0
2015-Jan-21 20:26N 51°53' E 004°21'0 0.0
2015-Jan-21 19:29N 51°53' E 004°21'0 0.0
2015-Jan-21 18:29N 51°53' E 004°21'0 0.0
2015-Jan-21 17:32N 51°53' E 004°21'0 0.0
2015-Jan-21 16:32N 51°53' E 004°21'0 0.0
2015-Jan-21 15:29N 51°53' E 004°21'0 0.0
2015-Jan-21 14:33N 51°53' E 004°21'2 1.8
2015-Jan-21 13:33N 51°54' E 004°18'10 9.7
2015-Jan-21 12:34N 51°59' E 004°05'1110.5
2015-Jan-21 11:33N 51°59' E 003°47'1110.6
2015-Jan-21 10:31N 51°56' E 003°30'1510.8
2015-Jan-21 09:08N 51°52' E 003°07'1811.1
2015-Jan-21 07:32N 51°47' E 002°40'1312.7
2015-Jan-21 06:33N 51°38' E 002°25'1313.2
2015-Jan-21 05:33N 51°27' E 002°13'1313.1
2015-Jan-21 04:33N 51°15' E 002°05'1313.1
2015-Jan-21 03:33N 51°08' E 001°47'1414.4
2015-Jan-21 02:33N 50°59' E 001°30'  
Track history (hours):
 
Tides and Currents Weather Stations Pressure Air Temp Water Temp Dewpoint Dewpoint Depression Visibility Wind Speed Wind Dir Waves Ship Positions

Fsl New York

Last reported at 2015-Jan-28 13:14 UTC. Time now 2015-Jan-29 10:26 UTC.
Position N 51°17' E 004°20'.

Length 138 m; draft 6.7 m.

Type: Tanker. MMSI: 565174000.

Date/timePositionNaut miles runAvg speedWind from/ knotsBaromVisibWave heightAir tempDewpointWater temp
2015-Jan-28 13:14N 51°17' E 004°20'0 0.2
2015-Jan-28 12:33N 51°17' E 004°21'4 4.5
2015-Jan-28 11:34N 51°21' E 004°17'0 0.0
2015-Jan-28 10:34N 51°21' E 004°17'5 4.7
2015-Jan-28 09:33N 51°24' E 004°11'8 8.1
2015-Jan-28 08:33N 51°26' E 003°59'10 9.8
2015-Jan-28 07:33N 51°23' E 003°44'8 8.0
2015-Jan-28 06:33N 51°27' E 003°33'1212.0
2015-Jan-28 05:33N 51°37' E 003°22'1110.3
2015-Jan-28 04:32N 51°46' E 003°13'2 2.5
2015-Jan-28 03:32N 51°47' E 003°10'7 6.4
2015-Jan-28 02:30N 51°52' E 003°19'10 9.7
2015-Jan-28 01:30N 52°01' E 003°20'1212.9
2015-Jan-28 00:33N 52°04' E 003°40'1110.7
2015-Jan-27 23:33N 52°02' E 003°57'1211.6
2015-Jan-27 22:33N 51°56' E 004°13'3 1.0
2015-Jan-27 19:13N 51°53' E 004°17'0 0.0
2015-Jan-27 06:13N 51°53' E 004°17'0 0.5
2015-Jan-27 05:33N 51°53' E 004°17'0 0.0
2015-Jan-26 02:33N 51°53' E 004°17'0 0.0
2015-Jan-25 01:31N 51°53' E 004°17'1 0.9
2015-Jan-25 00:32N 51°53' E 004°19'0 0.0
2015-Jan-24 09:34N 51°53' E 004°19'1 0.8
2015-Jan-24 08:34N 51°53' E 004°18'0 0.0
2015-Jan-22 12:31N 51°53' E 004°18'2 2.0
2015-Jan-22 11:32N 51°53' E 004°21'0 0.0
2015-Jan-22 10:29N 51°53' E 004°21'0 0.0
2015-Jan-22 09:26N 51°53' E 004°21'0 0.0
2015-Jan-22 08:20N 51°54' E 004°21'0 0.1
2015-Jan-22 07:29N 51°53' E 004°21'0 0.0
2015-Jan-22 06:32N 51°53' E 004°21'0 0.0
2015-Jan-22 05:23N 51°53' E 004°21'0 0.0
2015-Jan-22 04:29N 51°53' E 004°21'0 0.0
2015-Jan-22 03:29N 51°53' E 004°21'0 0.0
2015-Jan-22 02:23N 51°53' E 004°21'0 0.0
2015-Jan-22 01:32N 51°53' E 004°21'0 0.0
2015-Jan-22 00:32N 51°53' E 004°21'0 0.0
2015-Jan-21 23:29N 51°53' E 004°21'0 0.0
2015-Jan-21 22:44N 51°53' E 004°21'0 0.0
2015-Jan-21 22:20N 51°53' E 004°21'0 0.0
2015-Jan-21 21:32N 51°53' E 004°21'0 0.0
2015-Jan-21 20:26N 51°53' E 004°21'0 0.0
2015-Jan-21 19:29N 51°53' E 004°21'0 0.0
2015-Jan-21 18:29N 51°53' E 004°21'0 0.0
2015-Jan-21 17:32N 51°53' E 004°21'0 0.0
2015-Jan-21 16:32N 51°53' E 004°21'0 0.0
2015-Jan-21 15:29N 51°53' E 004°21'0 0.0
2015-Jan-21 14:33N 51°53' E 004°21'2 1.8
2015-Jan-21 13:33N 51°54' E 004°18'10 9.7
2015-Jan-21 12:34N 51°59' E 004°05'1110.5
2015-Jan-21 11:33N 51°59' E 003°47'1110.6
2015-Jan-21 10:31N 51°56' E 003°30'1510.8
2015-Jan-21 09:08N 51°52' E 003°07'1811.1
2015-Jan-21 07:32N 51°47' E 002°40'1312.7
2015-Jan-21 06:33N 51°38' E 002°25'1313.2
2015-Jan-21 05:33N 51°27' E 002°13'1313.1
2015-Jan-21 04:33N 51°15' E 002°05'1313.1
2015-Jan-21 03:33N 51°08' E 001°47'1414.4
2015-Jan-21 02:33N 50°59' E 001°30'  

Dump ship's entire track history